Time;durP1;ratioP1;P1;durP2;ratioP2;P2;SDS_P1;SDS_P2;PMS_P1;PMS_P2;Temp;Humidity;BMP_temperature;BMP_pressure;BME280_temperature;BME280_humidity;BME280_pressure;Samples;Min_cycle;Max_cycle;Signal;HPM_P1;HPM_P2
2023/01/23 00:00:07;;;;;;;144.38;63.95;;;;;;;;;;1033193;28;20149;-75
2023/01/23 00:00:38;;;;;;;140.98;63.55;;;;;;;;;;1033328;28;20045;-75
2023/01/23 00:01:13;;;;;;;147.25;64.07;;;;;;;;;;1033895;28;20157;-75
2023/01/23 00:01:44;;;;;;;132.82;61.17;;;;;;;;;;1032650;28;20026;-74
2023/01/23 00:02:14;;;;;;;127.15;58.55;;;;;;;;;;1030852;28;20023;-74
2023/01/23 00:02:45;;;;;;;100.38;52.33;;;;;;;;;;1033732;28;20368;-74
2023/01/23 00:03:15;;;;;;;92.60;44.10;;;;;;;;;;1033630;28;20118;-74
2023/01/23 00:03:46;;;;;;;104.15;49.70;;;;;;;;;;1032893;28;20046;-74
2023/01/23 00:04:16;;;;;;;99.32;47.55;;;;;;;;;;1033197;28;20054;-74
2023/01/23 00:04:48;;;;;;;113.15;49.85;;;;;;;;;;1033367;28;20030;-74
2023/01/23 00:05:18;;;;;;;94.15;44.75;;;;;;;;;;1024425;28;20101;-74
2023/01/23 00:05:59;;;;;;;111.20;49.72;;;;;;;;;;1033500;28;20896;-74
2023/01/23 00:06:29;;;;;;;95.15;48.45;;;;;;;;;;1031233;28;20020;-74
2023/01/23 00:07:02;;;;;;;88.90;44.65;;;;;;;;;;1028506;28;20035;-75
2023/01/23 00:07:32;;;;;;;108.60;49.88;;;;;;;;;;1033107;28;20071;-75
2023/01/23 00:08:03;;;;;;;97.22;47.00;;;;;;;;;;1033394;28;20025;-75
2023/01/23 00:08:34;;;;;;;94.90;48.85;;;;;;;;;;1033592;28;20060;-74
2023/01/23 00:09:04;;;;;;;105.70;47.53;;;;;;;;;;1033104;28;20032;-74
2023/01/23 00:09:35;;;;;;;87.43;41.05;;;;;;;;;;1033517;28;20465;-74
2023/01/23 00:10:06;;;;;;;91.13;44.25;;;;;;;;;;1033612;28;20051;-74
2023/01/23 00:10:37;;;;;;;85.72;43.70;;;;;;;;;;1033034;28;20391;-74
2023/01/23 00:11:08;;;;;;;78.93;41.25;;;;;;;;;;1033653;28;20025;-75
2023/01/23 00:11:39;;;;;;;91.60;40.95;;;;;;;;;;1031252;28;20067;-74
2023/01/23 00:12:09;;;;;;;80.65;39.03;;;;;;;;;;1032684;28;20035;-74
2023/01/23 00:12:42;;;;;;;80.18;39.95;;;;;;;;;;1032298;28;20025;-74
2023/01/23 00:13:12;;;;;;;81.78;39.67;;;;;;;;;;1033672;28;20023;-74
2023/01/23 00:13:43;;;;;;;91.25;41.70;;;;;;;;;;1033197;28;20021;-74
2023/01/23 00:14:13;;;;;;;78.57;39.35;;;;;;;;;;1031012;28;20525;-75
2023/01/23 00:14:44;;;;;;;75.60;38.22;;;;;;;;;;1030682;28;20068;-75
2023/01/23 00:15:14;;;;;;;61.50;34.50;;;;;;;;;;1031742;28;20488;-75
2023/01/23 00:15:46;;;;;;;68.32;33.42;;;;;;;;;;1037245;28;20515;-74
2023/01/23 00:16:17;;;;;;;59.22;32.97;;;;;;;;;;1028486;28;20026;-75
2023/01/23 00:16:48;;;;;;;61.65;30.55;;;;;;;;;;1029709;28;20024;-74
2023/01/23 00:17:18;;;;;;;57.28;30.63;;;;;;;;;;1028677;28;20465;-74
2023/01/23 00:17:49;;;;;;;73.20;34.75;;;;;;;;;;1029192;28;20569;-75
2023/01/23 00:18:19;;;;;;;79.22;35.50;;;;;;;;;;1033345;28;20057;-75
2023/01/23 00:18:50;;;;;;;55.83;34.85;;;;;;;;;;1033078;28;20034;-75
2023/01/23 00:19:21;;;;;;;66.85;34.78;;;;;;;;;;1029809;28;20468;-74
2023/01/23 00:19:52;;;;;;;68.00;33.10;;;;;;;;;;1030811;28;20499;-74
2023/01/23 00:20:23;;;;;;;62.47;32.65;;;;;;;;;;1033369;28;20027;-75
2023/01/23 00:20:53;;;;;;;68.45;34.92;;;;;;;;;;1031595;28;20032;-74
2023/01/23 00:21:25;;;;;;;59.55;27.13;;;;;;;;;;1033767;28;20023;-74
2023/01/23 00:21:57;;;;;;;65.80;32.03;;;;;;;;;;1032208;28;20021;-74
2023/01/23 00:22:28;;;;;;;60.65;32.50;;;;;;;;;;1032885;28;20031;-74
2023/01/23 00:22:58;;;;;;;63.35;34.90;;;;;;;;;;1033666;28;20017;-75
2023/01/23 00:23:29;;;;;;;70.90;33.00;;;;;;;;;;1033557;28;20461;-74
2023/01/23 00:24:00;;;;;;;61.78;33.83;;;;;;;;;;1030239;28;20021;-74
2023/01/23 00:24:31;;;;;;;61.42;29.63;;;;;;;;;;1037705;28;20127;-75
2023/01/23 00:25:02;;;;;;;69.78;33.45;;;;;;;;;;1033662;28;20030;-74
2023/01/23 00:25:33;;;;;;;64.63;33.83;;;;;;;;;;1032802;28;20023;-75
2023/01/23 00:26:04;;;;;;;64.15;33.38;;;;;;;;;;1033671;28;20464;-75
2023/01/23 00:26:35;;;;;;;66.50;31.88;;;;;;;;;;1032714;28;20092;-74
2023/01/23 00:27:05;;;;;;;72.13;33.17;;;;;;;;;;1032895;28;20023;-75
2023/01/23 00:27:36;;;;;;;66.50;33.55;;;;;;;;;;1033447;28;20110;-75
2023/01/23 00:28:07;;;;;;;70.00;37.50;;;;;;;;;;1024775;28;20070;-74
2023/01/23 00:28:37;;;;;;;74.38;31.08;;;;;;;;;;1026591;28;20467;-75
2023/01/23 00:29:08;;;;;;;52.80;31.45;;;;;;;;;;1032861;28;20027;-75
2023/01/23 00:29:38;;;;;;;73.28;34.13;;;;;;;;;;1032675;28;20035;-75
2023/01/23 00:30:09;;;;;;;71.93;35.08;;;;;;;;;;1032385;28;20060;-74
2023/01/23 00:30:40;;;;;;;66.40;33.92;;;;;;;;;;1031200;28;20116;-74
2023/01/23 00:31:12;;;;;;;65.10;34.90;;;;;;;;;;1024162;28;20022;-75
2023/01/23 00:31:43;;;;;;;70.88;32.40;;;;;;;;;;1026370;28;20471;-74
2023/01/23 00:32:13;;;;;;;71.15;37.17;;;;;;;;;;1029831;28;20032;-74
2023/01/23 00:32:44;;;;;;;73.57;32.05;;;;;;;;;;1033525;28;20027;-74
2023/01/23 00:33:14;;;;;;;65.28;34.83;;;;;;;;;;1032114;28;20021;-75
2023/01/23 00:33:45;;;;;;;79.85;36.70;;;;;;;;;;1033326;28;20711;-74
2023/01/23 00:34:15;;;;;;;69.90;34.70;;;;;;;;;;1032522;28;20035;-74
2023/01/23 00:34:46;;;;;;;74.78;35.28;;;;;;;;;;1033316;28;20027;-75
2023/01/23 00:35:17;;;;;;;72.32;31.95;;;;;;;;;;1033569;28;20019;-74
2023/01/23 00:35:47;;;;;;;68.90;35.67;;;;;;;;;;1033082;28;20106;-74
2023/01/23 00:36:18;;;;;;;59.45;33.10;;;;;;;;;;1032557;28;20083;-74
2023/01/23 00:36:49;;;;;;;62.75;29.85;;;;;;;;;;1035547;28;20029;-75
2023/01/23 00:37:19;;;;;;;60.83;29.08;;;;;;;;;;1031303;28;20420;-74
2023/01/23 00:37:50;;;;;;;82.75;40.03;;;;;;;;;;1033794;28;20083;-74
2023/01/23 00:38:20;;;;;;;70.07;33.00;;;;;;;;;;1034260;28;20060;-75
2023/01/23 00:38:51;;;;;;;63.33;30.02;;;;;;;;;;1034015;28;20025;-75
2023/01/23 00:39:22;;;;;;;70.63;35.03;;;;;;;;;;1033908;28;20021;-74
2023/01/23 00:39:52;;;;;;;72.85;33.60;;;;;;;;;;1033952;28;20034;-74
2023/01/23 00:40:23;;;;;;;70.68;32.53;;;;;;;;;;1032549;28;20088;-74
2023/01/23 00:40:55;;;;;;;68.03;33.78;;;;;;;;;;1027367;28;20027;-74
2023/01/23 00:41:25;;;;;;;74.85;38.67;;;;;;;;;;1034062;28;20028;-75
2023/01/23 00:41:56;;;;;;;71.22;33.75;;;;;;;;;;1031625;28;20047;-74
2023/01/23 00:42:27;;;;;;;70.72;36.05;;;;;;;;;;1034057;28;20102;-75
2023/01/23 00:42:57;;;;;;;82.75;37.13;;;;;;;;;;1031432;28;20025;-75
2023/01/23 00:43:28;;;;;;;71.97;32.08;;;;;;;;;;1033743;28;20023;-74
2023/01/23 00:43:58;;;;;;;67.75;31.83;;;;;;;;;;1030304;28;20445;-74
2023/01/23 00:44:29;;;;;;;59.47;32.25;;;;;;;;;;1034387;28;20035;-74
2023/01/23 00:45:00;;;;;;;76.90;35.65;;;;;;;;;;1034407;28;20108;-74
2023/01/23 00:45:30;;;;;;;85.32;38.55;;;;;;;;;;1033469;28;20035;-74
2023/01/23 00:46:01;;;;;;;68.63;33.80;;;;;;;;;;1030335;28;20023;-75
2023/01/23 00:46:31;;;;;;;83.20;37.72;;;;;;;;;;1033597;28;20044;-75
2023/01/23 00:47:02;;;;;;;75.97;33.22;;;;;;;;;;1034360;28;20087;-75
2023/01/23 00:47:32;;;;;;;82.32;35.50;;;;;;;;;;1029518;28;20028;-75
2023/01/23 00:48:03;;;;;;;81.07;35.63;;;;;;;;;;1035086;28;20035;-74
2023/01/23 00:48:34;;;;;;;70.97;34.88;;;;;;;;;;1030558;28;20027;-74
2023/01/23 00:49:04;;;;;;;68.47;30.90;;;;;;;;;;1031483;28;20023;-75
2023/01/23 00:49:35;;;;;;;71.28;33.80;;;;;;;;;;1034179;28;20038;-75
2023/01/23 00:50:06;;;;;;;74.82;37.33;;;;;;;;;;1033610;28;20383;-75
2023/01/23 00:50:36;;;;;;;78.00;34.67;;;;;;;;;;1033813;28;20506;-75
2023/01/23 00:51:07;;;;;;;70.57;33.70;;;;;;;;;;1034484;28;20483;-74
2023/01/23 00:51:37;;;;;;;80.97;35.33;;;;;;;;;;1033843;28;20069;-74
2023/01/23 00:52:08;;;;;;;79.57;39.35;;;;;;;;;;1035509;28;20041;-75
2023/01/23 00:52:38;;;;;;;84.18;39.28;;;;;;;;;;1033792;28;20028;-75
2023/01/23 00:53:09;;;;;;;86.65;41.47;;;;;;;;;;1032745;28;20083;-75
2023/01/23 00:53:40;;;;;;;92.07;38.08;;;;;;;;;;1035667;28;20128;-74
2023/01/23 00:54:11;;;;;;;79.55;35.28;;;;;;;;;;1034777;28;20048;-75
2023/01/23 00:54:41;;;;;;;91.18;37.33;;;;;;;;;;1034594;28;20025;-75
2023/01/23 00:55:12;;;;;;;88.15;39.65;;;;;;;;;;1033788;28;20400;-74
2023/01/23 00:55:43;;;;;;;99.88;42.15;;;;;;;;;;1031521;28;20027;-75
2023/01/23 00:56:13;;;;;;;110.93;43.97;;;;;;;;;;1039668;28;20033;-74
2023/01/23 00:56:44;;;;;;;111.53;46.80;;;;;;;;;;1035455;28;20090;-75
2023/01/23 00:57:15;;;;;;;100.75;43.97;;;;;;;;;;1035512;28;20565;-75
2023/01/23 00:57:45;;;;;;;116.38;45.92;;;;;;;;;;1032519;28;20048;-75
2023/01/23 00:58:16;;;;;;;106.00;44.47;;;;;;;;;;1034227;28;20041;-75
2023/01/23 00:58:46;;;;;;;108.70;46.60;;;;;;;;;;1034348;28;20591;-74
2023/01/23 00:59:17;;;;;;;109.47;48.13;;;;;;;;;;1030910;28;20061;-74
2023/01/23 00:59:47;;;;;;;82.78;43.10;;;;;;;;;;1031412;28;20115;-75
2023/01/23 01:00:18;;;;;;;100.72;44.28;;;;;;;;;;1033353;28;20033;-75
2023/01/23 01:00:48;;;;;;;108.70;48.03;;;;;;;;;;1034196;28;20021;-75
2023/01/23 01:01:21;;;;;;;97.63;44.60;;;;;;;;;;1033167;28;20031;-74
2023/01/23 01:01:51;;;;;;;97.80;44.33;;;;;;;;;;1030176;28;20408;-74
2023/01/23 01:02:22;;;;;;;99.63;44.22;;;;;;;;;;1035317;28;20031;-75
2023/01/23 01:02:52;;;;;;;103.63;44.15;;;;;;;;;;1027131;28;20027;-75
2023/01/23 01:03:24;;;;;;;111.13;50.20;;;;;;;;;;1032720;28;20023;-74
2023/01/23 01:03:54;;;;;;;106.88;46.33;;;;;;;;;;1034048;28;20387;-74
2023/01/23 01:04:25;;;;;;;125.07;50.90;;;;;;;;;;1033313;28;20073;-74
2023/01/23 01:04:55;;;;;;;116.93;45.72;;;;;;;;;;1027559;28;20027;-74
2023/01/23 01:05:26;;;;;;;105.57;47.05;;;;;;;;;;1034115;28;20019;-75
2023/01/23 01:05:57;;;;;;;114.15;50.08;;;;;;;;;;1037227;28;20034;-75
2023/01/23 01:06:28;;;;;;;117.22;48.58;;;;;;;;;;1033321;28;20476;-74
2023/01/23 01:06:59;;;;;;;110.55;47.58;;;;;;;;;;1032783;28;20038;-74
2023/01/23 01:07:29;;;;;;;102.50;49.08;;;;;;;;;;1033339;28;20052;-74
2023/01/23 01:08:00;;;;;;;114.63;49.78;;;;;;;;;;1033371;28;20500;-75
2023/01/23 01:08:31;;;;;;;108.15;46.60;;;;;;;;;;1030060;28;20471;-74
2023/01/23 01:09:02;;;;;;;134.77;49.17;;;;;;;;;;1032182;28;20404;-74
2023/01/23 01:09:33;;;;;;;96.22;46.08;;;;;;;;;;1030695;28;20027;-74
2023/01/23 01:10:04;;;;;;;102.13;46.58;;;;;;;;;;1031255;28;20080;-74
2023/01/23 01:10:34;;;;;;;123.30;51.72;;;;;;;;;;1029973;28;20027;-74
2023/01/23 01:11:05;;;;;;;120.53;51.85;;;;;;;;;;1034178;28;20058;-75
2023/01/23 01:11:35;;;;;;;105.45;48.38;;;;;;;;;;1034002;28;20058;-74
2023/01/23 01:12:06;;;;;;;115.22;49.13;;;;;;;;;;1033432;28;20076;-74
2023/01/23 01:12:37;;;;;;;111.95;48.83;;;;;;;;;;1030652;28;20025;-75
2023/01/23 01:13:08;;;;;;;106.90;49.17;;;;;;;;;;1028280;28;20029;-75
2023/01/23 01:13:38;;;;;;;108.65;48.58;;;;;;;;;;1029629;28;20502;-75
2023/01/23 01:14:09;;;;;;;101.43;42.85;;;;;;;;;;1035138;28;20064;-74
2023/01/23 01:14:39;;;;;;;114.25;51.92;;;;;;;;;;1034171;28;20123;-74
2023/01/23 01:15:10;;;;;;;98.72;44.78;;;;;;;;;;1027903;28;20028;-74
2023/01/23 01:15:40;;;;;;;112.00;48.30;;;;;;;;;;1033383;28;20029;-75
2023/01/23 01:16:11;;;;;;;118.80;48.15;;;;;;;;;;1031467;28;20108;-74
2023/01/23 01:16:44;;;;;;;99.57;46.40;;;;;;;;;;1033896;28;20024;-74
2023/01/23 01:17:15;;;;;;;105.18;47.90;;;;;;;;;;1035062;28;20035;-74
2023/01/23 01:17:46;;;;;;;106.28;45.42;;;;;;;;;;1034723;28;20037;-74
2023/01/23 01:18:17;;;;;;;105.90;47.40;;;;;;;;;;1030297;28;20023;-75
2023/01/23 01:18:47;;;;;;;96.53;43.90;;;;;;;;;;1028667;28;20424;-74
2023/01/23 01:19:18;;;;;;;100.68;45.58;;;;;;;;;;1037889;28;20020;-75
2023/01/23 01:19:49;;;;;;;97.93;44.78;;;;;;;;;;1034114;28;20031;-74
2023/01/23 01:20:22;;;;;;;107.57;47.70;;;;;;;;;;1026892;28;20130;-74
2023/01/23 01:20:53;;;;;;;131.10;55.22;;;;;;;;;;1033807;28;20027;-74
2023/01/23 01:21:23;;;;;;;117.50;47.85;;;;;;;;;;1036302;28;21103;-74
2023/01/23 01:21:54;;;;;;;91.05;43.10;;;;;;;;;;1034676;28;20452;-75
2023/01/23 01:22:24;;;;;;;106.75;47.97;;;;;;;;;;1033157;28;20027;-75
2023/01/23 01:22:57;;;;;;;112.53;45.90;;;;;;;;;;1034673;28;20118;-74
2023/01/23 01:23:27;;;;;;;102.88;47.33;;;;;;;;;;1034999;28;20132;-75
2023/01/23 01:23:58;;;;;;;104.32;45.30;;;;;;;;;;1035466;28;20538;-75
2023/01/23 01:24:28;;;;;;;91.88;43.50;;;;;;;;;;1026083;28;20029;-74
2023/01/23 01:24:59;;;;;;;115.38;49.85;;;;;;;;;;1026625;28;20029;-74
2023/01/23 01:25:30;;;;;;;111.22;50.55;;;;;;;;;;1030948;28;21026;-75
2023/01/23 01:26:01;;;;;;;110.88;46.60;;;;;;;;;;1035212;28;20040;-75
2023/01/23 01:26:32;;;;;;;98.20;47.63;;;;;;;;;;1031707;28;20039;-74
2023/01/23 01:27:02;;;;;;;121.03;52.42;;;;;;;;;;1034468;28;20210;-75
2023/01/23 01:27:33;;;;;;;112.15;50.17;;;;;;;;;;1031103;28;20023;-74
2023/01/23 01:28:03;;;;;;;99.85;48.00;;;;;;;;;;1029624;28;20027;-74
2023/01/23 01:28:35;;;;;;;106.65;46.15;;;;;;;;;;1030189;28;20046;-75
2023/01/23 01:29:06;;;;;;;116.00;46.03;;;;;;;;;;1033484;28;20027;-75
2023/01/23 01:29:36;;;;;;;104.22;48.70;;;;;;;;;;1026169;28;20019;-75
2023/01/23 01:30:07;;;;;;;106.15;50.78;;;;;;;;;;1024037;28;20081;-75
2023/01/23 01:30:38;;;;;;;114.25;53.78;;;;;;;;;;1034562;28;20477;-74
2023/01/23 01:31:11;;;;;;;109.13;49.78;;;;;;;;;;1033546;28;20544;-74
2023/01/23 01:31:41;;;;;;;109.10;46.55;;;;;;;;;;1026593;28;20015;-74
2023/01/23 01:32:12;;;;;;;116.22;52.45;;;;;;;;;;1031369;28;20035;-74
2023/01/23 01:32:43;;;;;;;106.75;47.92;;;;;;;;;;1037614;28;20056;-75
2023/01/23 01:33:13;;;;;;;116.00;50.95;;;;;;;;;;1028594;28;20058;-75
2023/01/23 01:33:44;;;;;;;110.60;52.92;;;;;;;;;;1030074;28;20118;-74
2023/01/23 01:34:14;;;;;;;119.97;51.50;;;;;;;;;;1029105;28;20023;-74
2023/01/23 01:34:45;;;;;;;118.47;53.25;;;;;;;;;;1030060;28;20504;-74
2023/01/23 01:35:15;;;;;;;115.47;54.90;;;;;;;;;;1030373;28;20031;-74
2023/01/23 01:35:46;;;;;;;120.22;56.22;;;;;;;;;;1028187;28;20038;-75
2023/01/23 01:36:17;;;;;;;109.55;50.13;;;;;;;;;;1037440;28;20028;-75
2023/01/23 01:36:48;;;;;;;127.60;56.92;;;;;;;;;;1030335;28;20119;-75
2023/01/23 01:37:21;;;;;;;133.63;57.65;;;;;;;;;;1030415;28;20698;-75
2023/01/23 01:37:51;;;;;;;112.90;52.90;;;;;;;;;;1037418;28;20067;-74
2023/01/23 01:38:22;;;;;;;115.70;53.33;;;;;;;;;;1037185;28;20021;-75
2023/01/23 01:38:53;;;;;;;132.80;54.90;;;;;;;;;;1037418;28;20071;-75
2023/01/23 01:39:23;;;;;;;136.95;59.67;;;;;;;;;;1029682;28;20052;-74
2023/01/23 01:39:54;;;;;;;125.10;55.17;;;;;;;;;;1029920;28;20032;-75
2023/01/23 01:40:26;;;;;;;130.18;61.10;;;;;;;;;;1029932;28;20033;-75
2023/01/23 01:40:57;;;;;;;121.22;55.58;;;;;;;;;;1028556;28;20051;-74
2023/01/23 01:41:27;;;;;;;122.93;51.88;;;;;;;;;;1035471;28;20036;-74
2023/01/23 01:41:58;;;;;;;148.55;60.92;;;;;;;;;;1029676;28;20625;-74
2023/01/23 01:42:28;;;;;;;129.73;56.88;;;;;;;;;;1026000;28;20042;-75
2023/01/23 01:43:04;;;;;;;105.95;47.47;;;;;;;;;;1029890;28;20071;-75
2023/01/23 01:43:35;;;;;;;116.53;51.42;;;;;;;;;;1036887;28;20068;-75
2023/01/23 01:44:05;;;;;;;131.40;57.72;;;;;;;;;;1032133;28;20023;-75
2023/01/23 01:44:54;;;;;;;123.65;59.10;;;;;;;;;;1031894;28;20493;-74
2023/01/23 01:45:44;;;;;;;131.90;54.03;;;;;;;;;;1035464;28;20024;-74
2023/01/23 01:46:27;;;;;;;130.88;54.45;;;;;;;;;;1026050;28;20494;-74
2023/01/23 01:46:58;;;;;;;111.30;49.35;;;;;;;;;;1026439;28;20033;-74
2023/01/23 01:47:28;;;;;;;124.45;54.75;;;;;;;;;;1034961;28;20313;-74
2023/01/23 01:47:59;;;;;;;118.47;55.75;;;;;;;;;;1029804;28;20035;-75
2023/01/23 01:48:32;;;;;;;126.97;58.90;;;;;;;;;;1035822;28;20360;-74
2023/01/23 01:49:08;;;;;;;127.20;55.50;;;;;;;;;;1027362;28;20037;-75
2023/01/23 01:49:39;;;;;;;126.07;55.50;;;;;;;;;;1037627;28;20529;-74
2023/01/23 01:50:10;;;;;;;124.60;52.42;;;;;;;;;;1038088;28;20585;-74
2023/01/23 01:50:41;;;;;;;122.75;57.53;;;;;;;;;;1030474;28;20416;-74
2023/01/23 01:51:12;;;;;;;123.32;56.25;;;;;;;;;;1035395;28;20489;-75
2023/01/23 01:52:14;;;;;;;123.13;52.20;;;;;;;;;;1036001;28;20162;-74
2023/01/23 01:52:45;;;;;;;123.75;55.55;;;;;;;;;;1020324;28;20033;-75
2023/01/23 01:53:15;;;;;;;127.22;54.33;;;;;;;;;;1024723;28;20571;-74
2023/01/23 01:53:48;;;;;;;126.95;55.80;;;;;;;;;;1029996;28;20104;-75
2023/01/23 01:54:39;;;;;;;128.00;55.72;;;;;;;;;;1033197;28;20111;-74
2023/01/23 01:55:09;;;;;;;111.07;50.33;;;;;;;;;;1028782;28;20034;-75
2023/01/23 01:55:40;;;;;;;119.70;55.70;;;;;;;;;;1036118;28;20023;-75
2023/01/23 01:56:11;;;;;;;124.88;56.83;;;;;;;;;;1036746;28;20418;-75
2023/01/23 01:56:50;;;;;;;126.15;54.38;;;;;;;;;;1025011;28;20036;-74
2023/01/23 01:57:20;;;;;;;135.65;55.28;;;;;;;;;;1030371;28;20482;-75
2023/01/23 01:57:53;;;;;;;126.57;55.58;;;;;;;;;;1032091;28;20025;-74
2023/01/23 01:58:24;;;;;;;132.20;57.83;;;;;;;;;;1033768;28;20107;-75
2023/01/23 01:58:54;;;;;;;130.48;56.33;;;;;;;;;;1036717;28;20024;-74
2023/01/23 01:59:26;;;;;;;152.70;60.67;;;;;;;;;;1037123;28;20487;-74
2023/01/23 02:00:26;;;;;;;119.13;55.00;;;;;;;;;;1034470;28;20038;-74
2023/01/23 02:00:57;;;;;;;128.98;53.33;;;;;;;;;;1035323;28;20022;-75
2023/01/23 02:01:27;;;;;;;141.18;56.45;;;;;;;;;;1035610;28;20462;-75
2023/01/23 02:02:08;;;;;;;138.48;56.60;;;;;;;;;;1033517;28;20027;-74
2023/01/23 02:02:44;;;;;;;122.18;55.95;;;;;;;;;;1041353;28;20052;-74
2023/01/23 02:03:15;;;;;;;114.50;53.42;;;;;;;;;;1031197;28;20072;-75
2023/01/23 02:03:47;;;;;;;128.48;51.80;;;;;;;;;;1037665;28;20033;-75
2023/01/23 02:04:18;;;;;;;125.95;52.75;;;;;;;;;;1037459;28;20025;-74
2023/01/23 02:04:50;;;;;;;123.53;53.58;;;;;;;;;;1035622;28;20015;-75
2023/01/23 02:05:23;;;;;;;123.50;51.38;;;;;;;;;;1030281;28;20073;-74
2023/01/23 02:05:53;;;;;;;105.40;50.00;;;;;;;;;;1034862;28;20113;-74
2023/01/23 02:06:25;;;;;;;110.90;53.00;;;;;;;;;;1035432;28;20490;-74
2023/01/23 02:06:56;;;;;;;134.38;53.30;;;;;;;;;;1030565;28;20027;-75
2023/01/23 02:07:32;;;;;;;125.78;52.90;;;;;;;;;;1031637;28;20437;-74
2023/01/23 02:08:21;;;;;;;115.22;52.78;;;;;;;;;;1030239;28;20031;-75
2023/01/23 02:09:00;;;;;;;106.13;50.63;;;;;;;;;;1030178;28;20498;-74
2023/01/23 02:09:32;;;;;;;99.13;48.63;;;;;;;;;;1031081;28;20352;-75
2023/01/23 02:10:04;;;;;;;114.57;50.70;;;;;;;;;;1029616;28;20037;-74
2023/01/23 02:10:36;;;;;;;115.45;52.05;;;;;;;;;;1029230;28;20035;-75
2023/01/23 02:11:06;;;;;;;105.80;51.20;;;;;;;;;;1030725;28;20427;-75
2023/01/23 02:11:37;;;;;;;120.97;51.67;;;;;;;;;;1028176;28;20023;-74
2023/01/23 02:12:08;;;;;;;113.63;50.22;;;;;;;;;;1029801;28;20027;-74
2023/01/23 02:12:39;;;;;;;106.20;53.72;;;;;;;;;;1035953;28;20035;-74
2023/01/23 02:13:32;;;;;;;131.52;52.88;;;;;;;;;;1036137;28;20439;-74
2023/01/23 02:14:03;;;;;;;103.22;48.25;;;;;;;;;;1026710;28;20043;-74
2023/01/23 02:14:34;;;;;;;119.82;50.60;;;;;;;;;;1028051;28;20487;-75
2023/01/23 02:15:05;;;;;;;105.65;48.22;;;;;;;;;;1034954;28;20020;-75
2023/01/23 02:15:35;;;;;;;109.22;52.63;;;;;;;;;;1031441;28;20123;-75
2023/01/23 02:16:10;;;;;;;109.60;50.45;;;;;;;;;;1032491;28;20027;-74
2023/01/23 02:16:45;;;;;;;122.13;47.90;;;;;;;;;;1029556;28;20069;-74
2023/01/23 02:17:15;;;;;;;102.47;45.65;;;;;;;;;;1024057;28;20017;-75
2023/01/23 02:17:47;;;;;;;112.78;47.03;;;;;;;;;;1023365;28;20402;-74
2023/01/23 02:18:19;;;;;;;104.57;46.47;;;;;;;;;;1024819;28;20500;-75
2023/01/23 02:18:52;;;;;;;103.03;46.08;;;;;;;;;;1014954;28;20032;-74
2023/01/23 02:19:28;;;;;;;97.43;46.53;;;;;;;;;;1026377;28;20498;-75
2023/01/23 02:20:14;;;;;;;89.78;40.85;;;;;;;;;;1029344;28;20110;-75
2023/01/23 02:20:46;;;;;;;86.85;42.90;;;;;;;;;;1031345;28;20089;-75
2023/01/23 02:21:19;;;;;;;91.78;42.15;;;;;;;;;;1029485;28;20028;-75
2023/01/23 02:21:53;;;;;;;95.32;43.03;;;;;;;;;;1028450;28;20021;-75
2023/01/23 02:22:44;;;;;;;100.45;45.78;;;;;;;;;;1031505;28;20024;-75
2023/01/23 02:23:20;;;;;;;100.03;45.50;;;;;;;;;;1031559;28;20028;-74
2023/01/23 02:24:13;;;;;;;104.93;43.97;;;;;;;;;;1036465;28;20058;-75
2023/01/23 02:24:49;;;;;;;98.07;43.40;;;;;;;;;;1029561;28;20066;-74
2023/01/23 02:25:25;;;;;;;112.45;44.92;;;;;;;;;;1024788;28;20058;-74
2023/01/23 02:26:00;;;;;;;104.78;42.58;;;;;;;;;;1034280;28;20052;-74
2023/01/23 02:26:35;;;;;;;83.03;41.85;;;;;;;;;;1032255;28;20803;-74
2023/01/23 02:27:06;;;;;;;108.97;49.22;;;;;;;;;;1031610;28;20035;-74
2023/01/23 02:27:36;;;;;;;103.32;49.47;;;;;;;;;;1031192;28;20021;-74
2023/01/23 02:28:08;;;;;;;106.65;50.17;;;;;;;;;;1034582;28;20558;-74
2023/01/23 02:28:43;;;;;;;104.72;48.75;;;;;;;;;;1035895;28;20025;-74
2023/01/23 02:29:14;;;;;;;111.72;46.65;;;;;;;;;;1036597;28;20033;-74
2023/01/23 02:29:47;;;;;;;106.53;47.63;;;;;;;;;;1030657;28;20554;-74
2023/01/23 02:30:19;;;;;;;106.90;49.83;;;;;;;;;;1031816;28;20027;-74
2023/01/23 02:30:50;;;;;;;96.45;45.15;;;;;;;;;;1027760;28;20027;-73
2023/01/23 02:31:21;;;;;;;95.28;42.65;;;;;;;;;;1035762;28;20520;-74
2023/01/23 02:31:52;;;;;;;88.75;44.50;;;;;;;;;;1024970;28;20027;-74
2023/01/23 02:32:25;;;;;;;95.18;42.40;;;;;;;;;;1032432;28;20476;-74
2023/01/23 02:33:31;;;;;;;107.20;46.80;;;;;;;;;;1033366;28;20077;-74
2023/01/23 02:34:02;;;;;;;97.68;45.40;;;;;;;;;;1032782;28;20465;-73
2023/01/23 02:34:33;;;;;;;97.25;42.97;;;;;;;;;;1028970;28;20024;-74
2023/01/23 02:35:09;;;;;;;94.65;42.45;;;;;;;;;;1026714;28;20019;-74
2023/01/23 02:35:39;;;;;;;86.70;38.63;;;;;;;;;;1038395;28;20457;-74
2023/01/23 02:36:10;;;;;;;111.13;46.72;;;;;;;;;;1034488;28;20080;-74
2023/01/23 02:36:43;;;;;;;104.20;46.67;;;;;;;;;;1034764;28;20071;-74
2023/01/23 02:37:14;;;;;;;107.53;45.83;;;;;;;;;;1032988;28;20020;-74
2023/01/23 02:37:46;;;;;;;96.68;43.70;;;;;;;;;;1033532;28;20496;-73
2023/01/23 02:38:19;;;;;;;100.25;45.28;;;;;;;;;;1032607;28;20028;-74
2023/01/23 02:39:06;;;;;;;104.18;41.83;;;;;;;;;;1024665;28;20023;-74
2023/01/23 02:39:38;;;;;;;98.97;44.75;;;;;;;;;;1033945;28;20379;-75
2023/01/23 02:40:09;;;;;;;92.82;44.13;;;;;;;;;;1027933;28;20024;-74
2023/01/23 02:40:40;;;;;;;102.90;42.55;;;;;;;;;;1027376;28;20431;-74
2023/01/23 02:41:13;;;;;;;109.22;40.75;;;;;;;;;;1034977;28;20019;-74
2023/01/23 02:41:45;;;;;;;89.43;39.40;;;;;;;;;;1032844;28;20032;-74
2023/01/23 02:42:15;;;;;;;104.25;44.50;;;;;;;;;;1037070;28;20029;-74
2023/01/23 02:42:46;;;;;;;101.43;43.70;;;;;;;;;;1030992;28;20038;-75
2023/01/23 02:43:20;;;;;;;92.35;42.03;;;;;;;;;;1029517;28;20428;-75
2023/01/23 02:43:51;;;;;;;86.45;40.88;;;;;;;;;;1026626;28;20513;-75
2023/01/23 02:44:26;;;;;;;88.47;41.10;;;;;;;;;;1028322;28;20027;-75
2023/01/23 02:44:56;;;;;;;90.88;41.58;;;;;;;;;;1033288;28;20046;-75
2023/01/23 02:45:27;;;;;;;89.90;41.78;;;;;;;;;;1032958;28;20035;-74
2023/01/23 02:46:00;;;;;;;98.75;43.97;;;;;;;;;;1035670;28;20039;-74
2023/01/23 02:46:30;;;;;;;97.95;46.33;;;;;;;;;;1028326;28;20036;-74
2023/01/23 02:47:03;;;;;;;100.18;45.17;;;;;;;;;;1035858;28;20044;-74
2023/01/23 02:47:34;;;;;;;89.55;41.80;;;;;;;;;;1024152;28;20535;-74
2023/01/23 02:48:06;;;;;;;96.50;43.38;;;;;;;;;;1024934;28;20027;-74
2023/01/23 02:48:38;;;;;;;91.70;40.80;;;;;;;;;;1030926;28;20141;-74
2023/01/23 02:49:09;;;;;;;107.35;39.67;;;;;;;;;;1029630;28;20049;-74
2023/01/23 02:49:41;;;;;;;92.78;41.35;;;;;;;;;;1026826;28;20068;-74
2023/01/23 02:50:12;;;;;;;83.13;36.60;;;;;;;;;;1027118;28;20029;-74
2023/01/23 02:50:45;;;;;;;101.43;41.47;;;;;;;;;;1022415;28;20116;-74
2023/01/23 02:51:19;;;;;;;92.10;40.45;;;;;;;;;;1025778;28;20032;-74
2023/01/23 02:51:50;;;;;;;83.47;36.72;;;;;;;;;;1033128;28;20025;-74
2023/01/23 02:52:22;;;;;;;90.72;39.35;;;;;;;;;;1031845;28;20059;-73
2023/01/23 02:52:53;;;;;;;102.95;42.58;;;;;;;;;;1028688;28;20034;-74
2023/01/23 02:53:24;;;;;;;91.72;41.97;;;;;;;;;;1024438;28;20531;-74
2023/01/23 02:53:55;;;;;;;87.07;40.08;;;;;;;;;;1026204;28;20035;-74
2023/01/23 02:54:25;;;;;;;93.07;43.17;;;;;;;;;;1035339;28;20017;-74
2023/01/23 02:54:56;;;;;;;81.22;39.65;;;;;;;;;;1032069;28;20035;-73
2023/01/23 02:55:31;;;;;;;86.10;39.50;;;;;;;;;;1027066;28;20025;-73
2023/01/23 02:56:02;;;;;;;78.68;40.03;;;;;;;;;;1025084;28;20066;-73
2023/01/23 02:56:33;;;;;;;74.00;36.30;;;;;;;;;;1031236;28;20626;-74
2023/01/23 02:57:03;;;;;;;87.25;41.72;;;;;;;;;;1032547;28;20021;-74
2023/01/23 02:57:34;;;;;;;99.90;42.90;;;;;;;;;;1031056;28;20147;-74
2023/01/23 03:00:32;;;;;;;88.43;40.58;;;;;;;;;;1025716;28;20331;-74
2023/01/23 03:01:03;;;;;;;91.53;39.92;;;;;;;;;;1020998;28;20404;-74
2023/01/23 03:01:34;;;;;;;91.55;39.45;;;;;;;;;;1017847;28;20114;-74
2023/01/23 03:02:05;;;;;;;87.43;39.45;;;;;;;;;;1019969;28;20079;-73
2023/01/23 03:02:37;;;;;;;97.70;39.95;;;;;;;;;;1020533;28;20765;-74
2023/01/23 03:03:08;;;;;;;90.28;40.38;;;;;;;;;;1017242;28;20400;-74
2023/01/23 03:03:41;;;;;;;96.43;43.22;;;;;;;;;;1023690;28;20591;-74
2023/01/23 03:04:11;;;;;;;87.63;38.60;;;;;;;;;;1015906;28;20028;-73
2023/01/23 03:04:42;;;;;;;105.82;42.55;;;;;;;;;;1025112;28;20377;-74
2023/01/23 03:05:12;;;;;;;89.10;34.70;;;;;;;;;;1020047;28;20410;-74
2023/01/23 03:05:45;;;;;;;114.75;44.95;;;;;;;;;;1025596;28;20072;-74
2023/01/23 03:06:16;;;;;;;98.50;42.28;;;;;;;;;;1033395;28;20127;-74
2023/01/23 03:06:47;;;;;;;89.30;39.03;;;;;;;;;;1024410;28;20492;-74
2023/01/23 03:07:17;;;;;;;98.43;40.28;;;;;;;;;;1026159;28;20021;-74
2023/01/23 03:07:48;;;;;;;100.60;42.72;;;;;;;;;;1021586;28;20110;-74